createdAt,value
2022-12-15T12:16:25.698Z,100204.09
2022-12-15T12:19:05.559Z,100214.81
2022-12-15T12:21:37.892Z,100203.75
2022-12-15T12:24:16.775Z,100198.00
2022-12-15T12:29:48.638Z,100194.41
2022-12-15T12:32:32.652Z,100206.78
2022-12-15T12:35:31.089Z,100210.34
2022-12-15T12:38:04.985Z,100209.44
2022-12-15T12:40:57.959Z,100210.59
2022-12-15T12:43:35.524Z,100203.22
2022-12-15T12:46:15.694Z,100201.94
2022-12-15T12:48:56.473Z,100192.47
2022-12-15T12:51:30.910Z,100201.41
2022-12-15T12:54:01.347Z,100193.94
2022-12-15T12:56:40.462Z,100190.00
2022-12-15T12:59:40.180Z,100195.78
2022-12-15T13:02:47.858Z,100194.72
2022-12-15T13:05:35.784Z,100195.50
2022-12-15T13:08:30.619Z,100187.56
2022-12-15T13:11:38.483Z,100187.13
2022-12-15T13:14:21.015Z,100181.97
2022-12-15T13:17:24.894Z,100181.84
2022-12-15T13:20:21.687Z,100186.47
2022-12-15T13:22:51.754Z,100180.31
2022-12-15T13:25:36.404Z,100190.56
2022-12-15T13:28:32.868Z,100186.88
2022-12-15T13:31:28.516Z,100183.94
2022-12-15T13:34:02.399Z,100190.63
2022-12-15T13:36:55.628Z,100187.97
2022-12-15T13:39:57.560Z,100184.25
2022-12-15T13:42:48.236Z,100186.56
2022-12-15T13:45:51.277Z,100187.72
2022-12-15T13:48:31.869Z,100186.38
2022-12-15T13:51:22.999Z,100186.75
2022-12-15T13:53:56.401Z,100182.97
2022-12-15T13:56:50.756Z,100175.53
2022-12-15T13:59:28.071Z,100179.47
2022-12-15T14:01:55.892Z,100186.09
2022-12-15T14:04:24.183Z,100179.81
2022-12-15T14:06:54.764Z,100182.28
2022-12-15T14:09:26.912Z,100181.25
2022-12-15T14:11:56.663Z,100174.06
2022-12-15T14:14:27.745Z,100176.56
2022-12-15T14:17:03.815Z,100180.66
2022-12-15T14:19:41.006Z,100171.72
2022-12-15T14:22:27.595Z,100171.44
2022-12-15T14:25:01.604Z,100177.28
2022-12-15T14:27:33.470Z,100174.53
2022-12-15T14:30:22.912Z,100181.31
2022-12-15T14:32:55.606Z,100180.16
2022-12-15T14:35:30.528Z,100178.25
2022-12-15T14:38:01.897Z,100189.88
2022-12-15T14:40:30.855Z,100189.50
2022-12-15T14:43:00.590Z,100180.44
2022-12-15T14:45:31.241Z,100186.91
2022-12-15T14:50:49.712Z,100202.50
2022-12-15T14:53:21.449Z,100204.84
2022-12-15T14:55:49.648Z,100199.25
2022-12-15T14:58:36.408Z,100196.31
2022-12-15T15:01:07.259Z,100193.44
2022-12-15T15:03:10.726Z,100194.13
2022-12-15T15:03:38.318Z,100199.16
2022-12-15T15:06:16.674Z,100198.09
2022-12-15T15:08:48.159Z,100196.03
2022-12-15T15:11:26.922Z,100200.91
2022-12-15T15:13:57.857Z,100194.63
2022-12-15T15:16:25.877Z,100196.91
2022-12-15T15:18:56.119Z,100196.53
2022-12-15T15:21:26.089Z,100187.56
2022-12-15T15:24:01.593Z,100189.84
2022-12-15T15:26:31.019Z,100192.16
2022-12-15T15:29:00.455Z,100197.97
2022-12-15T15:35:40.742Z,100203.22
2022-12-15T15:38:31.060Z,100207.25
2022-12-15T15:41:01.082Z,100193.09
2022-12-15T15:43:29.609Z,100197.88
2022-12-15T15:46:01.787Z,100201.13
2022-12-15T15:48:33.110Z,100205.09
2022-12-15T15:51:02.163Z,100203.97
2022-12-15T15:53:33.001Z,100193.34
2022-12-15T15:56:01.720Z,100207.75
2022-12-15T15:58:29.984Z,100210.03
2022-12-15T16:00:59.407Z,100201.16
2022-12-15T16:03:27.372Z,100205.97
2022-12-15T16:05:55.318Z,100205.63
2022-12-15T16:08:27.444Z,100200.16
2022-12-15T16:10:55.899Z,100214.53
2022-12-15T16:13:26.324Z,100217.75
2022-12-15T16:15:54.683Z,100221.00
2022-12-15T16:18:23.870Z,100226.91
2022-12-15T16:20:52.699Z,100225.75
2022-12-15T16:23:24.090Z,100230.66
2022-12-15T16:25:53.807Z,100226.94
2022-12-15T16:28:23.637Z,100244.00
2022-12-15T16:30:52.007Z,100237.59
2022-12-15T16:33:20.247Z,100234.75
2022-12-15T16:35:51.236Z,100247.50
2022-12-15T16:38:24.165Z,100246.25
2022-12-15T16:40:52.807Z,100247.78
2022-12-15T16:43:28.899Z,100241.47
2022-12-15T16:46:01.206Z,100255.81
2022-12-15T16:48:29.459Z,100248.63
2022-12-15T16:50:59.844Z,100250.03
2022-12-15T16:53:29.931Z,100248.09
2022-12-15T16:55:59.678Z,100245.22
2022-12-15T16:58:29.623Z,100249.25
2022-12-15T17:00:58.393Z,100255.00
2022-12-15T17:03:27.685Z,100254.78
2022-12-15T17:05:57.327Z,100266.53
2022-12-15T17:08:30.345Z,100264.53
2022-12-15T17:10:58.543Z,100272.91
2022-12-15T17:13:39.105Z,100271.94
2022-12-15T17:16:14.212Z,100270.78
2022-12-15T17:18:42.989Z,100270.59
2022-12-15T17:21:16.318Z,100278.94
2022-12-15T17:23:49.237Z,100270.00
2022-12-15T17:26:28.552Z,100274.94
2022-12-15T17:29:00.922Z,100273.84
2022-12-15T17:31:34.800Z,100275.38
2022-12-15T17:34:20.866Z,100269.91
2022-12-15T17:36:48.872Z,100284.31
2022-12-15T17:39:19.928Z,100276.28
2022-12-15T17:42:04.342Z,100269.94
2022-12-15T17:44:37.294Z,100280.78
2022-12-15T17:47:08.867Z,100270.97
2022-12-15T17:49:38.287Z,100270.69
2022-12-15T17:52:14.149Z,100260.88
2022-12-15T17:54:43.339Z,100270.09
2022-12-15T17:57:12.393Z,100275.06
2022-12-15T17:59:40.298Z,100275.69
2022-12-15T18:02:11.899Z,100287.41
2022-12-15T18:04:39.997Z,100287.22
2022-12-15T18:07:14.909Z,100287.81
2022-12-15T18:09:44.093Z,100287.63
2022-12-15T18:12:18.825Z,100299.44
2022-12-15T18:14:46.665Z,100299.31
2022-12-15T18:17:14.801Z,100300.03
2022-12-15T18:19:42.527Z,100292.00
2022-12-15T18:22:13.526Z,100284.66
2022-12-15T18:24:41.380Z,100294.78
2022-12-15T18:27:20.699Z,100291.13
2022-12-15T18:29:48.413Z,100302.91
2022-12-15T18:32:16.906Z,100319.94
2022-12-15T18:34:44.970Z,100322.25
2022-12-15T18:37:16.526Z,100324.63
2022-12-15T18:39:44.278Z,100312.41
2022-12-15T18:42:17.848Z,100313.22
2022-12-15T18:44:49.947Z,100310.53
2022-12-15T18:47:19.619Z,100306.16
2022-12-15T18:49:47.507Z,100310.22
2022-12-15T18:52:18.724Z,100317.84
2022-12-15T18:54:47.864Z,100308.25
2022-12-15T18:57:28.424Z,100307.16
2022-12-15T18:59:58.887Z,100300.97
2022-12-15T19:02:26.783Z,100308.53
2022-12-15T19:04:54.771Z,100310.84
2022-12-15T19:07:22.677Z,100319.16
2022-12-15T19:09:50.802Z,100318.94
2022-12-15T19:12:19.108Z,100310.31
2022-12-15T19:14:50.132Z,100304.97
2022-12-15T19:17:37.011Z,100316.81
2022-12-15T19:20:25.710Z,100314.97
2022-12-15T19:22:53.767Z,100308.72
2022-12-15T19:25:26.268Z,100315.34
2022-12-15T19:27:58.766Z,100310.84
2022-12-15T19:30:29.753Z,100318.38
2022-12-15T19:32:58.212Z,100307.97
2022-12-15T19:35:27.327Z,100308.56
2022-12-15T19:37:57.862Z,100316.06
2022-12-15T19:40:28.349Z,100319.34
2022-12-15T19:42:56.311Z,100302.00
2022-12-15T19:45:26.121Z,100313.66
2022-12-15T19:47:55.502Z,100310.09
2022-12-15T19:50:24.573Z,100310.88
2022-12-15T19:52:55.857Z,100312.44
2022-12-15T19:55:27.946Z,100320.88
2022-12-15T19:57:55.788Z,100314.63
2022-12-15T20:00:24.796Z,100314.28
2022-12-15T20:02:54.845Z,100314.97
2022-12-15T20:05:25.601Z,100312.19
2022-12-15T20:07:54.653Z,100320.59
2022-12-15T20:10:29.464Z,100303.16
2022-12-15T20:12:59.662Z,100311.53
2022-12-15T20:15:27.431Z,100313.13
2022-12-15T20:17:56.895Z,100321.50
2022-12-15T20:20:37.911Z,100320.41
2022-12-15T20:23:11.941Z,100320.28
2022-12-15T20:25:41.338Z,100321.97
2022-12-15T20:28:15.778Z,100317.53
2022-12-15T20:30:44.098Z,100317.31
2022-12-15T20:33:13.113Z,100322.34
2022-12-15T20:35:43.177Z,100325.69
2022-12-15T20:38:24.867Z,100310.94
2022-12-15T20:40:52.839Z,100322.00
2022-12-15T20:43:22.607Z,100315.75
2022-12-15T20:46:02.933Z,100327.63
2022-12-15T20:48:31.216Z,100326.50
2022-12-15T20:51:04.346Z,100318.69
2022-12-15T20:53:35.698Z,100318.47
2022-12-15T20:56:03.742Z,100319.16
2022-12-15T20:58:33.352Z,100321.50
2022-12-15T21:01:01.527Z,100311.88
2022-12-15T21:03:34.009Z,100310.00
2022-12-15T21:06:03.244Z,100315.78
2022-12-15T21:08:32.527Z,100312.22
2022-12-15T21:11:03.401Z,100317.25
2022-12-15T21:13:35.417Z,100316.25
2022-12-15T21:16:03.544Z,100322.97
2022-12-15T21:21:25.364Z,100318.38
2022-12-15T21:23:53.203Z,100319.84
2022-12-15T21:26:24.311Z,100316.38
2022-12-15T21:28:55.775Z,100313.59
2022-12-15T21:31:24.696Z,100311.69
2022-12-15T21:33:52.784Z,100322.75
2022-12-15T21:36:23.966Z,100319.06
2022-12-15T21:38:53.177Z,100313.81
2022-12-15T21:41:24.068Z,100314.59
2022-12-15T21:43:51.795Z,100317.97
2022-12-15T21:49:18.229Z,100310.72
2022-12-15T21:51:51.916Z,100319.94
2022-12-15T21:54:24.723Z,100312.03
2022-12-15T21:56:55.280Z,100314.50
2022-12-15T21:59:26.174Z,100313.59
2022-12-15T22:01:55.305Z,100315.03
2022-12-15T22:04:29.213Z,100313.28
2022-12-15T22:06:58.556Z,100323.53
2022-12-15T22:09:26.391Z,100315.72
2022-12-15T22:11:56.784Z,100313.81
2022-12-15T22:14:26.988Z,100317.94
2022-12-15T22:16:55.176Z,100319.50
2022-12-15T22:19:23.900Z,100320.16
2022-12-15T22:21:52.059Z,100323.53
2022-12-15T22:24:21.363Z,100325.91
2022-12-15T22:26:49.304Z,100321.41
2022-12-15T22:29:19.693Z,100318.75
2022-12-15T22:31:47.914Z,100326.34
2022-12-15T22:34:17.461Z,100316.72
2022-12-15T22:36:45.788Z,100327.00
2022-12-15T22:39:14.993Z,100330.25
2022-12-15T22:41:46.332Z,100330.13
2022-12-15T22:44:19.145Z,100329.13
2022-12-15T22:46:47.550Z,100326.34
2022-12-15T22:49:18.965Z,100324.53
2022-12-15T22:51:47.099Z,100324.28
2022-12-15T22:54:19.890Z,100331.13
2022-12-15T22:56:51.680Z,100326.63
2022-12-15T22:59:24.512Z,100334.25
2022-12-15T23:01:52.547Z,100327.19
2022-12-15T23:04:20.325Z,100326.31
2022-12-15T23:06:48.612Z,100324.50
2022-12-15T23:09:16.341Z,100328.88
2022-12-15T23:11:43.966Z,100333.88
2022-12-15T23:14:14.929Z,100330.44
2022-12-15T23:16:42.427Z,100339.66
2022-12-15T23:19:23.480Z,100328.50
2022-12-15T23:21:51.230Z,100329.28
2022-12-15T23:24:19.519Z,100339.47
2022-12-15T23:26:47.296Z,100342.03
2022-12-15T23:29:16.579Z,100340.09
2022-12-15T23:31:44.392Z,100338.22
2022-12-15T23:34:12.389Z,100342.44
2022-12-15T23:36:40.083Z,100342.88
2022-12-15T23:39:07.781Z,100348.44
2022-12-15T23:41:36.281Z,100349.09
2022-12-15T23:44:04.030Z,100341.94
2022-12-15T23:46:33.954Z,100348.63
2022-12-15T23:49:01.764Z,100350.16
2022-12-15T23:51:29.507Z,100365.44
2022-12-15T23:53:57.263Z,100359.31
2022-12-15T23:56:25.589Z,100370.25
2022-12-15T23:58:56.788Z,100361.53
